createdAt,value
2023-04-08T00:00:29.147Z,1.00
2023-04-08T00:02:56.006Z,99.90
2023-04-08T00:05:22.921Z,99.90
2023-04-08T00:07:49.813Z,64.50
2023-04-08T00:10:16.672Z,99.90
2023-04-08T00:12:43.419Z,99.90
2023-04-08T00:15:10.478Z,31.00
2023-04-08T00:17:37.261Z,99.90
2023-04-08T00:20:05.829Z,99.90
2023-04-08T00:22:32.616Z,1.00
2023-04-08T00:24:59.333Z,1.00
2023-04-08T00:27:26.046Z,1.00
2023-04-08T00:29:53.037Z,1.00
2023-04-08T00:32:19.790Z,99.90
2023-04-08T00:34:46.539Z,99.90
2023-04-08T00:37:13.328Z,24.20
2023-04-08T00:39:40.429Z,1.00
2023-04-08T00:42:07.214Z,1.00
2023-04-08T00:44:34.113Z,99.90
2023-04-08T00:47:00.974Z,1.00
2023-04-08T00:49:27.926Z,1.00
2023-04-08T00:51:55.845Z,1.00
2023-04-08T00:54:22.879Z,1.00
2023-04-08T00:56:49.648Z,99.90
2023-04-08T00:59:18.566Z,1.00
2023-04-08T01:02:16.905Z,2.70
2023-04-08T01:04:58.256Z,46.40
2023-04-08T01:07:32.425Z,1.00
2023-04-08T01:10:07.705Z,1.00
2023-04-08T01:12:51.969Z,99.90
2023-04-08T01:15:18.990Z,99.90
2023-04-08T01:17:46.664Z,1.00
2023-04-08T01:20:15.603Z,99.90
2023-04-08T01:23:00.892Z,1.00
2023-04-08T01:25:32.268Z,58.10
2023-04-08T01:28:01.921Z,1.00
2023-04-08T01:30:30.679Z,1.00
2023-04-08T01:32:59.363Z,99.90
2023-04-08T01:35:26.930Z,99.90
2023-04-08T01:37:55.668Z,99.90
2023-04-08T01:40:22.739Z,99.90
2023-04-08T01:42:51.942Z,32.00
2023-04-08T01:45:19.063Z,1.00
2023-04-08T01:47:49.974Z,99.90
2023-04-08T01:50:18.336Z,1.00
2023-04-08T01:52:47.761Z,1.00
2023-04-08T01:55:14.872Z,1.00
2023-04-08T01:57:46.655Z,99.90
2023-04-08T02:00:15.875Z,99.90
2023-04-08T02:02:47.313Z,1.00
2023-04-08T02:05:14.630Z,99.90
2023-04-08T02:07:41.371Z,1.00
2023-04-08T02:10:08.509Z,99.90
2023-04-08T02:12:35.437Z,1.00
2023-04-08T02:15:02.248Z,99.90
2023-04-08T02:17:37.120Z,1.00
2023-04-08T02:20:07.962Z,1.00
2023-04-08T02:22:53.511Z,99.90
2023-04-08T02:25:24.334Z,99.90
2023-04-08T02:27:53.073Z,1.00
2023-04-08T02:30:21.185Z,1.00
2023-04-08T02:32:48.765Z,1.00
2023-04-08T02:35:16.548Z,99.90
2023-04-08T02:37:44.528Z,1.00
2023-04-08T02:40:27.291Z,1.00
2023-04-08T02:42:54.746Z,99.90
2023-04-08T02:45:21.692Z,1.00
2023-04-08T02:47:48.456Z,1.00
2023-04-08T02:50:15.587Z,99.90
2023-04-08T02:52:43.834Z,99.90
2023-04-08T02:55:10.865Z,1.00
2023-04-08T02:57:39.717Z,1.00
2023-04-08T03:00:07.318Z,1.00
2023-04-08T03:02:34.358Z,99.90
2023-04-08T03:05:01.266Z,99.90
2023-04-08T03:07:28.238Z,99.90
2023-04-08T03:09:55.625Z,99.90
2023-04-08T03:12:23.205Z,99.90
2023-04-08T03:14:50.546Z,99.90
2023-04-08T03:17:17.363Z,1.00
2023-04-08T03:19:44.112Z,1.00
2023-04-08T03:22:11.149Z,1.00
2023-04-08T03:24:37.868Z,99.90
2023-04-08T03:27:04.817Z,99.90
2023-04-08T03:29:31.708Z,1.00
2023-04-08T03:31:58.634Z,1.00
2023-04-08T03:34:25.425Z,1.00
2023-04-08T03:36:52.153Z,1.00
2023-04-08T03:39:19.364Z,1.00
2023-04-08T03:41:46.076Z,99.90
2023-04-08T03:44:12.743Z,99.90
2023-04-08T03:46:39.502Z,1.00
2023-04-08T03:49:07.358Z,99.90
2023-04-08T03:51:34.171Z,1.00
2023-04-08T03:54:00.910Z,1.00
2023-04-08T03:56:27.697Z,99.90
2023-04-08T03:58:54.452Z,1.00
2023-04-08T04:01:21.250Z,1.00
2023-04-08T04:03:48.084Z,1.00
2023-04-08T04:06:14.898Z,1.00
2023-04-08T04:08:41.645Z,99.90
2023-04-08T04:11:08.387Z,1.00
2023-04-08T04:13:35.096Z,95.70
2023-04-08T04:16:02.086Z,98.20
2023-04-08T04:18:28.901Z,99.90
2023-04-08T04:20:55.788Z,99.90
2023-04-08T04:23:24.377Z,99.90
2023-04-08T04:25:51.314Z,99.90
2023-04-08T04:28:18.073Z,99.90
2023-04-08T04:30:45.675Z,99.90
2023-04-08T04:33:12.456Z,99.90
2023-04-08T04:35:40.011Z,99.90
2023-04-08T04:38:12.566Z,99.90
2023-04-08T04:40:39.766Z,99.90
2023-04-08T04:43:06.454Z,99.90
2023-04-08T04:45:33.240Z,99.90
2023-04-08T04:48:00.034Z,99.90
2023-04-08T04:50:26.839Z,99.90
2023-04-08T04:52:53.550Z,99.90
2023-04-08T04:55:22.291Z,99.90
2023-04-08T04:57:49.530Z,1.00
2023-04-08T05:00:17.057Z,99.90
2023-04-08T05:02:44.100Z,1.00
2023-04-08T05:05:11.151Z,99.90
2023-04-08T05:07:38.787Z,1.00
2023-04-08T05:10:06.892Z,99.90
2023-04-08T05:12:33.692Z,1.00
2023-04-08T05:15:00.742Z,99.90
2023-04-08T05:17:27.672Z,1.00
2023-04-08T05:19:54.526Z,99.90
2023-04-08T05:22:21.356Z,99.90
2023-04-08T05:24:48.155Z,99.90
2023-04-08T05:27:14.821Z,99.90
2023-04-08T05:29:41.668Z,90.10
2023-04-08T05:32:08.439Z,31.10
2023-04-08T05:34:35.157Z,1.00
2023-04-08T05:37:01.844Z,1.00
2023-04-08T05:39:28.610Z,1.00
2023-04-08T05:41:55.527Z,1.00
2023-04-08T05:44:22.294Z,1.00
2023-04-08T05:46:49.127Z,1.00
2023-04-08T05:49:17.326Z,1.00
2023-04-08T05:51:44.019Z,1.00
2023-04-08T05:54:10.912Z,1.00
2023-04-08T05:56:37.653Z,1.00
2023-04-08T05:59:04.354Z,1.00
2023-04-08T06:01:31.246Z,1.00
2023-04-08T06:03:58.184Z,1.00
2023-04-08T06:06:26.146Z,1.00
2023-04-08T06:08:52.987Z,1.00
2023-04-08T06:11:19.835Z,29.60
2023-04-08T06:13:46.486Z,99.80
2023-04-08T06:16:19.582Z,1.00
2023-04-08T06:18:48.221Z,1.00
2023-04-08T06:21:15.761Z,1.00
2023-04-08T06:23:42.662Z,99.90
2023-04-08T06:26:09.473Z,99.90
2023-04-08T06:28:36.313Z,47.90
2023-04-08T06:31:03.223Z,36.50
2023-04-08T06:33:29.931Z,99.90
2023-04-08T06:36:04.299Z,1.00
2023-04-08T06:38:32.081Z,1.00
2023-04-08T06:41:08.134Z,1.00
2023-04-08T06:43:36.519Z,99.90
2023-04-08T06:46:03.705Z,62.90
2023-04-08T06:48:30.982Z,99.90
2023-04-08T06:50:59.251Z,1.00
2023-04-08T06:53:26.995Z,99.90
2023-04-08T06:55:53.707Z,1.00
2023-04-08T06:58:20.623Z,1.00
2023-04-08T07:00:48.307Z,99.90
2023-04-08T07:03:15.390Z,1.00
2023-04-08T07:05:42.194Z,1.00
2023-04-08T07:08:09.324Z,1.00
2023-04-08T07:10:36.248Z,99.90
2023-04-08T07:13:03.298Z,99.90
2023-04-08T07:15:30.228Z,1.00
2023-04-08T07:17:57.268Z,58.20
2023-04-08T07:20:24.231Z,1.00
2023-04-08T07:22:50.936Z,99.90
2023-04-08T07:25:17.935Z,1.00
2023-04-08T07:27:44.663Z,1.00
2023-04-08T07:30:11.851Z,1.00
2023-04-08T07:32:38.834Z,1.00
2023-04-08T07:35:05.993Z,1.00
2023-04-08T07:37:32.788Z,1.00
2023-04-08T07:39:59.498Z,99.90
2023-04-08T07:42:26.807Z,1.00
2023-04-08T07:44:53.572Z,99.90
2023-04-08T07:47:20.402Z,1.00
2023-04-08T07:49:48.242Z,99.90
2023-04-08T07:52:15.070Z,61.10
2023-04-08T07:54:42.042Z,1.00
2023-04-08T07:57:08.837Z,1.00
2023-04-08T07:59:36.220Z,99.90
2023-04-08T08:02:03.389Z,99.90
2023-04-08T08:04:30.470Z,1.00
2023-04-08T08:06:57.290Z,1.00
2023-04-08T08:09:24.035Z,1.00
2023-04-08T08:11:50.820Z,1.00
2023-04-08T08:14:17.586Z,1.00
2023-04-08T08:16:44.719Z,1.00
2023-04-08T08:19:12.449Z,1.00
2023-04-08T08:21:39.693Z,1.00
2023-04-08T08:24:06.955Z,99.90
2023-04-08T08:26:37.215Z,1.00
2023-04-08T08:29:05.000Z,1.00
2023-04-08T08:31:33.099Z,1.00
2023-04-08T08:33:59.894Z,1.00
2023-04-08T08:36:29.591Z,99.90
2023-04-08T08:38:56.454Z,99.90
2023-04-08T08:41:23.334Z,99.90
2023-04-08T08:43:50.566Z,99.90
2023-04-08T08:46:19.335Z,1.00
2023-04-08T08:48:46.597Z,1.00
2023-04-08T08:51:14.929Z,1.00
2023-04-08T08:53:45.644Z,1.00
2023-04-08T08:58:42.542Z,99.90
2023-04-08T09:01:31.901Z,36.90
2023-04-08T09:04:16.497Z,1.00
2023-04-08T09:06:44.817Z,1.00
2023-04-08T09:09:11.712Z,1.00
2023-04-08T09:11:43.804Z,1.00
2023-04-08T09:14:24.935Z,1.00
2023-04-08T09:16:52.867Z,1.00
2023-04-08T09:19:19.803Z,1.00
2023-04-08T09:21:47.611Z,1.00
2023-04-08T09:24:31.289Z,1.00
2023-04-08T09:26:58.090Z,1.00
2023-04-08T09:29:27.632Z,99.90
2023-04-08T09:31:57.809Z,99.90
2023-04-08T09:34:26.117Z,99.90
2023-04-08T09:36:54.134Z,99.90
2023-04-08T09:39:21.072Z,99.90
2023-04-08T09:41:51.888Z,99.90
2023-04-08T09:44:21.287Z,99.90
2023-04-08T09:46:51.492Z,99.90
2023-04-08T09:49:38.221Z,1.00
2023-04-08T09:52:16.950Z,1.00
2023-04-08T09:55:05.220Z,1.00
2023-04-08T09:57:56.603Z,1.00
2023-04-08T10:00:28.804Z,1.00
2023-04-08T10:03:03.526Z,1.00
2023-04-08T10:05:31.555Z,1.00
2023-04-08T10:07:58.599Z,1.00
2023-04-08T10:10:26.293Z,1.00
2023-04-08T10:12:53.314Z,1.00
2023-04-08T10:15:34.544Z,1.00
2023-04-08T10:18:06.870Z,1.00
2023-04-08T10:20:36.639Z,1.00
2023-04-08T10:23:04.557Z,1.00
2023-04-08T10:25:33.185Z,1.00
2023-04-08T10:28:19.908Z,1.00
2023-04-08T10:30:47.212Z,1.00
2023-04-08T10:33:23.479Z,1.00
2023-04-08T10:36:11.640Z,1.00
2023-04-08T10:38:42.773Z,1.00
2023-04-08T10:41:21.423Z,1.00
2023-04-08T10:43:48.289Z,1.00
2023-04-08T10:46:15.149Z,1.00
2023-04-08T10:48:41.968Z,1.00
2023-04-08T10:51:08.680Z,1.00
2023-04-08T10:53:39.738Z,1.00
2023-04-08T10:56:13.189Z,1.00
2023-04-08T10:58:51.193Z,1.00
2023-04-08T11:01:18.509Z,1.00
2023-04-08T11:03:45.865Z,1.00
2023-04-08T11:06:12.824Z,1.00
2023-04-08T11:08:39.705Z,1.00
2023-04-08T11:11:09.374Z,1.00
2023-04-08T11:13:42.936Z,1.00
2023-04-08T11:16:18.456Z,1.00
2023-04-08T11:18:46.205Z,1.00
2023-04-08T11:21:12.985Z,1.00
2023-04-08T11:23:39.859Z,1.00
2023-04-08T11:26:06.951Z,1.00
2023-04-08T11:28:35.485Z,1.00
2023-04-08T11:31:05.897Z,1.00
2023-04-08T11:33:33.365Z,1.00
2023-04-08T11:36:03.942Z,1.00
2023-04-08T11:38:30.735Z,1.00
2023-04-08T11:40:59.426Z,1.00
2023-04-08T11:43:26.704Z,1.00
2023-04-08T11:45:53.431Z,1.00
2023-04-08T11:48:20.327Z,1.00
2023-04-08T11:50:47.121Z,1.00
2023-04-08T11:53:26.235Z,1.00
2023-04-08T11:55:53.018Z,1.00
2023-04-08T11:58:19.716Z,1.00
2023-04-08T12:00:46.381Z,1.00
2023-04-08T12:03:13.801Z,1.00
2023-04-08T12:05:41.374Z,1.00
2023-04-08T12:08:08.125Z,1.00
2023-04-08T12:10:34.905Z,1.00
2023-04-08T12:13:01.687Z,1.00
2023-04-08T12:15:28.580Z,1.00
2023-04-08T12:17:55.840Z,1.00
2023-04-08T12:20:22.669Z,1.00
2023-04-08T12:22:49.398Z,1.00
2023-04-08T12:25:16.176Z,1.00
2023-04-08T12:27:43.272Z,1.00
2023-04-08T12:30:10.660Z,1.00
2023-04-08T12:32:37.516Z,1.00
2023-04-08T12:35:04.516Z,1.00
2023-04-08T12:37:33.186Z,1.00
2023-04-08T12:39:59.936Z,1.00
2023-04-08T12:42:27.999Z,1.00
2023-04-08T12:44:54.736Z,1.00
2023-04-08T12:47:22.265Z,1.00
2023-04-08T12:49:50.608Z,1.00
2023-04-08T12:52:18.630Z,1.00
2023-04-08T12:54:45.553Z,1.00
2023-04-08T12:57:12.558Z,1.00
2023-04-08T12:59:40.115Z,1.00
2023-04-08T13:02:07.879Z,1.00
2023-04-08T13:04:35.091Z,1.00
2023-04-08T13:07:02.283Z,1.00
2023-04-08T13:09:30.554Z,1.00
2023-04-08T13:11:58.234Z,1.00
2023-04-08T13:14:25.147Z,1.00
2023-04-08T13:16:52.152Z,1.00
2023-04-08T13:19:18.996Z,1.00
2023-04-08T13:21:46.321Z,1.00
2023-04-08T13:24:13.280Z,1.00
2023-04-08T13:26:40.309Z,1.00
2023-04-08T13:29:07.263Z,1.00
2023-04-08T13:31:34.083Z,1.00
2023-04-08T13:34:00.982Z,1.00
2023-04-08T13:36:28.865Z,1.00
2023-04-08T13:38:56.561Z,1.00
2023-04-08T13:41:23.467Z,1.00
2023-04-08T13:43:50.467Z,1.00
2023-04-08T13:46:18.044Z,1.00
2023-04-08T13:48:45.071Z,1.00
2023-04-08T13:51:11.811Z,1.00
2023-04-08T13:53:38.501Z,1.00
2023-04-08T13:56:05.415Z,1.00
2023-04-08T13:58:32.233Z,1.00
2023-04-08T14:00:59.006Z,1.00
2023-04-08T14:03:26.408Z,1.00
2023-04-08T14:05:53.860Z,1.00
2023-04-08T14:08:25.286Z,1.00
2023-04-08T14:10:56.327Z,1.00
2023-04-08T14:13:23.389Z,1.00
2023-04-08T14:15:50.119Z,1.00
2023-04-08T14:18:19.604Z,1.00
2023-04-08T14:20:46.444Z,1.00
2023-04-08T14:23:13.681Z,1.00
2023-04-08T14:25:40.888Z,1.00
2023-04-08T14:28:07.998Z,1.00
2023-04-08T14:30:36.051Z,1.00
2023-04-08T14:33:05.110Z,1.00
2023-04-08T14:35:32.028Z,1.00
2023-04-08T14:37:59.142Z,1.00
2023-04-08T14:40:26.032Z,1.00
2023-04-08T14:42:52.753Z,1.00
2023-04-08T14:45:19.527Z,1.00
2023-04-08T14:47:46.657Z,1.00
2023-04-08T14:50:13.495Z,1.00
2023-04-08T14:52:40.678Z,1.00
2023-04-08T14:55:07.792Z,1.00
2023-04-08T14:57:34.477Z,1.00
2023-04-08T15:00:01.877Z,1.00
2023-04-08T15:02:28.637Z,1.00
2023-04-08T15:04:55.541Z,1.00
2023-04-08T15:07:22.711Z,1.00
2023-04-08T15:09:49.537Z,1.00
2023-04-08T15:12:16.633Z,1.00
2023-04-08T15:14:43.375Z,1.00
2023-04-08T15:17:10.348Z,1.00
2023-04-08T15:19:37.082Z,1.00
2023-04-08T15:22:03.956Z,1.00
2023-04-08T15:24:30.719Z,1.00
2023-04-08T15:26:57.556Z,1.00
2023-04-08T15:29:24.685Z,1.00
2023-04-08T15:31:52.548Z,1.00
2023-04-08T15:34:19.316Z,1.00
2023-04-08T15:36:47.391Z,1.00
2023-04-08T15:39:14.178Z,1.00
2023-04-08T15:41:41.478Z,1.00
2023-04-08T15:44:08.244Z,1.00
2023-04-08T15:46:37.283Z,1.00
2023-04-08T15:49:04.626Z,1.00
2023-04-08T15:51:32.256Z,1.00
2023-04-08T15:53:59.200Z,1.00
2023-04-08T15:56:27.219Z,1.00
2023-04-08T15:58:54.270Z,1.00
2023-04-08T16:01:21.399Z,1.00
2023-04-08T16:03:48.648Z,1.00
2023-04-08T16:06:15.630Z,1.00
2023-04-08T16:08:43.711Z,1.00
2023-04-08T16:11:10.494Z,1.00
2023-04-08T16:13:39.187Z,1.00
2023-04-08T16:16:06.062Z,1.00
2023-04-08T16:18:32.909Z,1.00
2023-04-08T16:20:59.930Z,1.00
2023-04-08T16:23:26.640Z,1.00
2023-04-08T16:25:53.446Z,1.00
2023-04-08T16:28:20.445Z,1.00
2023-04-08T16:30:47.913Z,1.00
2023-04-08T16:33:14.899Z,1.00
2023-04-08T16:35:41.796Z,1.00
2023-04-08T16:38:08.550Z,1.00
2023-04-08T16:40:35.544Z,1.00
2023-04-08T16:43:04.264Z,1.00
2023-04-08T16:45:32.502Z,1.00
2023-04-08T16:48:00.407Z,1.00
2023-04-08T16:50:28.378Z,1.00
2023-04-08T16:52:55.478Z,1.00
2023-04-08T16:55:22.285Z,1.00
2023-04-08T16:57:49.095Z,1.00
2023-04-08T17:00:18.619Z,1.00
2023-04-08T17:02:47.464Z,1.00
2023-04-08T17:05:14.503Z,1.00
2023-04-08T17:07:41.763Z,1.00
2023-04-08T17:10:09.164Z,1.00
2023-04-08T17:12:36.421Z,1.00
2023-04-08T17:15:03.798Z,1.00
2023-04-08T17:17:30.964Z,1.00
2023-04-08T17:19:58.218Z,1.00
2023-04-08T17:22:25.162Z,1.00
2023-04-08T17:24:51.973Z,1.00
2023-04-08T17:27:18.774Z,1.00
2023-04-08T17:29:45.455Z,1.00
2023-04-08T17:32:12.640Z,1.00
2023-04-08T17:34:40.735Z,1.00
2023-04-08T17:37:08.193Z,1.00
2023-04-08T17:39:40.528Z,1.00
2023-04-08T17:42:08.273Z,1.00
2023-04-08T17:44:35.433Z,1.00
2023-04-08T17:47:03.035Z,1.00
2023-04-08T17:49:30.170Z,1.00
2023-04-08T17:51:56.878Z,1.00
2023-04-08T17:54:24.947Z,1.00
2023-04-08T17:56:51.799Z,1.00
2023-04-08T17:59:18.483Z,1.00
2023-04-08T18:01:45.651Z,1.00
2023-04-08T18:04:13.706Z,1.00
2023-04-08T18:06:40.610Z,1.00
2023-04-08T18:09:07.294Z,1.00
2023-04-08T18:11:34.028Z,1.00
2023-04-08T18:14:00.729Z,1.00
2023-04-08T18:16:27.472Z,1.00
2023-04-08T18:18:54.261Z,1.00
2023-04-08T18:21:22.088Z,1.00
2023-04-08T18:23:50.207Z,7.80
2023-04-08T18:26:17.317Z,23.00
2023-04-08T18:28:44.283Z,24.80
2023-04-08T18:31:11.181Z,55.20
2023-04-08T18:33:39.268Z,64.10
2023-04-08T18:36:08.047Z,86.60
2023-04-08T18:38:36.259Z,99.90
2023-04-08T18:41:06.418Z,99.90
2023-04-08T18:43:33.651Z,99.90
2023-04-08T18:46:00.505Z,99.90
2023-04-08T18:48:27.448Z,99.90
2023-04-08T18:50:54.367Z,99.90
2023-04-08T18:53:21.900Z,99.90
2023-04-08T18:55:48.597Z,99.90
2023-04-08T18:58:15.355Z,99.90
2023-04-08T19:00:43.627Z,99.90
2023-04-08T19:03:11.000Z,99.90
2023-04-08T19:05:38.162Z,99.90
2023-04-08T19:08:05.470Z,99.90
2023-04-08T19:10:33.573Z,99.90
2023-04-08T19:13:01.077Z,99.90
2023-04-08T19:15:30.987Z,99.90
2023-04-08T19:17:59.035Z,99.90
2023-04-08T19:20:27.198Z,99.90
2023-04-08T19:22:54.022Z,99.90
2023-04-08T19:25:20.893Z,99.90
2023-04-08T19:27:47.697Z,99.90
2023-04-08T19:30:14.613Z,99.90
2023-04-08T19:32:42.741Z,99.90
2023-04-08T19:35:12.265Z,99.90
2023-04-08T19:37:38.997Z,99.90
2023-04-08T19:40:07.594Z,99.90
2023-04-08T19:42:34.311Z,99.90
2023-04-08T19:45:01.227Z,1.00
2023-04-08T19:47:28.230Z,99.90
2023-04-08T19:49:55.177Z,1.00
2023-04-08T19:52:22.166Z,1.00
2023-04-08T19:54:52.229Z,1.00
2023-04-08T19:57:19.883Z,1.00
2023-04-08T19:59:48.642Z,1.00
2023-04-08T20:02:15.689Z,1.00
2023-04-08T20:04:42.727Z,1.00
2023-04-08T20:07:09.625Z,1.00
2023-04-08T20:09:36.436Z,1.00
2023-04-08T20:12:06.368Z,1.00
2023-04-08T20:14:35.521Z,1.00
2023-04-08T20:17:02.698Z,1.00
2023-04-08T20:19:29.545Z,1.00
2023-04-08T20:21:57.362Z,1.00
2023-04-08T20:24:24.307Z,1.00
2023-04-08T20:26:52.365Z,1.00
2023-04-08T20:29:19.392Z,1.00
2023-04-08T20:31:46.440Z,1.00
2023-04-08T20:34:13.272Z,1.00
2023-04-08T20:36:40.122Z,99.90
2023-04-08T20:39:10.724Z,99.90
2023-04-08T20:41:37.758Z,99.90
2023-04-08T20:44:09.654Z,99.90
2023-04-08T20:46:37.698Z,99.90
2023-04-08T20:49:05.558Z,99.90
2023-04-08T20:51:33.763Z,99.90
2023-04-08T20:54:00.742Z,99.90
2023-04-08T20:56:27.545Z,99.90
2023-04-08T20:58:54.496Z,99.90
2023-04-08T21:01:22.046Z,99.90
2023-04-08T21:03:49.315Z,99.90
2023-04-08T21:06:20.402Z,99.90
2023-04-08T21:08:47.559Z,99.90
2023-04-08T21:11:14.875Z,99.90
2023-04-08T21:13:41.880Z,99.90
2023-04-08T21:16:09.162Z,99.90
2023-04-08T21:18:39.550Z,99.90
2023-04-08T21:21:06.361Z,99.90
2023-04-08T21:23:33.081Z,99.90
2023-04-08T21:26:01.938Z,99.90
2023-04-08T21:28:29.960Z,99.90
2023-04-08T21:30:57.283Z,99.90
2023-04-08T21:33:23.921Z,99.90
2023-04-08T21:35:50.730Z,99.90
2023-04-08T21:38:17.416Z,99.90
2023-04-08T21:40:44.161Z,99.90
2023-04-08T21:43:10.869Z,99.90
2023-04-08T21:45:37.617Z,99.90
2023-04-08T21:48:04.544Z,99.90
2023-04-08T21:50:32.371Z,99.90
2023-04-08T21:52:59.170Z,99.90
2023-04-08T21:55:26.005Z,99.90
2023-04-08T21:57:52.750Z,99.90
2023-04-08T22:00:19.458Z,99.90
2023-04-08T22:02:46.477Z,99.90
2023-04-08T22:05:13.526Z,99.90
2023-04-08T22:07:40.275Z,99.90
2023-04-08T22:10:07.764Z,99.90
2023-04-08T22:12:34.426Z,99.90
2023-04-08T22:15:01.204Z,99.90
2023-04-08T22:17:28.018Z,99.90
2023-04-08T22:19:54.883Z,99.90
2023-04-08T22:22:21.662Z,99.90
2023-04-08T22:24:48.363Z,99.90
2023-04-08T22:27:15.075Z,99.90
2023-04-08T22:29:41.774Z,99.90
2023-04-08T22:32:08.532Z,99.90
2023-04-08T22:34:36.184Z,99.90
2023-04-08T22:37:03.002Z,99.90
2023-04-08T22:39:29.872Z,99.90
2023-04-08T22:41:57.399Z,1.00
2023-04-08T22:44:24.131Z,1.00
2023-04-08T22:46:51.634Z,1.00
2023-04-08T22:49:18.389Z,1.00
2023-04-08T22:51:45.244Z,1.00
2023-04-08T22:54:12.021Z,1.00
2023-04-08T22:56:38.739Z,1.00
2023-04-08T22:59:05.568Z,1.00
2023-04-08T23:01:32.569Z,1.00
2023-04-08T23:03:59.440Z,1.00
2023-04-08T23:06:27.375Z,1.00
2023-04-08T23:08:54.200Z,1.00
2023-04-08T23:11:21.330Z,1.00
2023-04-08T23:13:48.133Z,1.00
2023-04-08T23:16:14.948Z,1.00
2023-04-08T23:18:41.663Z,1.00
2023-04-08T23:21:08.351Z,1.00
2023-04-08T23:23:35.116Z,1.00
2023-04-08T23:26:01.802Z,1.00
2023-04-08T23:28:28.562Z,1.00
2023-04-08T23:30:55.346Z,1.00
2023-04-08T23:33:22.082Z,1.00
2023-04-08T23:35:48.834Z,5.30
2023-04-08T23:38:15.972Z,41.90
2023-04-08T23:40:42.688Z,46.80
2023-04-08T23:43:09.583Z,99.90
2023-04-08T23:45:36.284Z,99.90
2023-04-08T23:48:03.095Z,99.90
2023-04-08T23:50:30.056Z,99.90
2023-04-08T23:52:56.857Z,99.90
2023-04-08T23:55:23.619Z,99.90
2023-04-08T23:57:50.916Z,1.00
